createdAt,value
2023-02-15T00:01:35.902Z,102760.31
2023-02-15T00:04:02.776Z,102763.53
2023-02-15T00:06:29.244Z,102764.69
2023-02-15T00:08:56.251Z,102767.88
2023-02-15T00:11:41.502Z,102763.63
2023-02-15T00:14:26.896Z,102762.25
2023-02-15T00:16:54.199Z,102763.31
2023-02-15T00:19:21.640Z,102757.53
2023-02-15T00:21:49.582Z,102756.00
2023-02-15T00:24:17.683Z,102739.28
2023-02-15T00:26:44.960Z,102745.16
2023-02-15T00:29:12.316Z,102750.16
2023-02-15T00:31:39.172Z,102746.78
2023-02-15T00:34:25.950Z,102747.09
2023-02-15T00:36:53.114Z,102740.94
2023-02-15T00:39:20.024Z,102746.81
2023-02-15T00:41:47.120Z,102743.75
2023-02-15T00:44:14.325Z,102739.94
2023-02-15T00:46:41.032Z,102740.66
2023-02-15T00:49:07.629Z,102727.50
2023-02-15T00:51:34.230Z,102730.13
2023-02-15T00:54:00.799Z,102739.19
2023-02-15T00:56:29.377Z,102732.03
2023-02-15T00:58:56.146Z,102731.63
2023-02-15T01:01:24.494Z,102733.41
2023-02-15T01:03:51.010Z,102724.47
2023-02-15T01:06:17.908Z,102725.72
2023-02-15T01:08:47.970Z,102730.75
2023-02-15T01:11:22.995Z,102726.72
2023-02-15T01:13:56.477Z,102724.81
2023-02-15T01:16:24.405Z,102717.63
2023-02-15T01:18:51.071Z,102719.31
2023-02-15T01:21:20.105Z,102720.66
2023-02-15T01:23:46.732Z,102717.31
2023-02-15T01:26:14.133Z,102716.59
2023-02-15T01:28:40.697Z,102717.16
2023-02-15T01:31:12.236Z,102699.47
2023-02-15T01:33:39.039Z,102704.16
2023-02-15T01:36:06.000Z,102703.31
2023-02-15T01:38:32.871Z,102700.09
2023-02-15T01:41:17.823Z,102699.56
2023-02-15T01:43:56.557Z,102693.13
2023-02-15T01:46:44.332Z,102683.47
2023-02-15T01:49:14.333Z,102688.25
2023-02-15T01:51:42.422Z,102685.38
2023-02-15T01:54:28.528Z,102677.53
2023-02-15T01:56:59.712Z,102668.53
2023-02-15T01:59:26.434Z,102667.63
2023-02-15T02:01:55.805Z,102669.78
2023-02-15T02:04:26.892Z,102665.75
2023-02-15T02:06:54.243Z,102668.44
2023-02-15T02:09:20.701Z,102664.78
2023-02-15T02:11:48.389Z,102672.22
2023-02-15T02:14:15.815Z,102657.78
2023-02-15T02:17:29.306Z,102663.25
2023-02-15T02:20:29.904Z,102656.69
2023-02-15T02:23:08.133Z,102649.06
2023-02-15T02:26:12.350Z,102642.69
2023-02-15T02:29:08.404Z,102644.91
2023-02-15T02:31:45.787Z,102639.97
2023-02-15T02:34:27.065Z,102637.81
2023-02-15T02:37:11.732Z,102641.03
2023-02-15T02:39:42.911Z,102638.47
2023-02-15T02:42:40.536Z,102633.97
2023-02-15T02:45:15.759Z,102619.13
2023-02-15T02:47:52.308Z,102629.47
2023-02-15T02:50:23.784Z,102630.50
2023-02-15T02:52:52.570Z,102624.34
2023-02-15T02:55:36.854Z,102619.75
2023-02-15T02:58:17.921Z,102608.63
2023-02-15T03:00:49.974Z,102611.25
2023-02-15T03:03:22.365Z,102601.19
2023-02-15T03:05:51.192Z,102613.28
2023-02-15T03:08:22.899Z,102607.63
2023-02-15T03:10:53.212Z,102608.63
2023-02-15T03:13:20.084Z,102599.28
2023-02-15T03:16:05.740Z,102600.13
2023-02-15T03:18:37.006Z,102601.19
2023-02-15T03:21:04.479Z,102599.34
2023-02-15T03:23:31.560Z,102589.97
2023-02-15T03:26:00.680Z,102590.09
2023-02-15T03:28:35.076Z,102585.69
2023-02-15T03:31:04.071Z,102593.53
2023-02-15T03:33:30.912Z,102593.38
2023-02-15T03:36:39.246Z,102593.03
2023-02-15T03:39:14.089Z,102592.19
2023-02-15T03:41:47.190Z,102593.44
2023-02-15T03:44:21.679Z,102590.69
2023-02-15T03:46:54.810Z,102589.31
2023-02-15T03:49:25.701Z,102585.78
2023-02-15T03:51:54.193Z,102593.72
2023-02-15T03:54:44.505Z,102590.38
2023-02-15T03:57:31.326Z,102588.84
2023-02-15T04:00:18.222Z,102590.44
2023-02-15T04:02:56.897Z,102579.41
2023-02-15T04:05:23.338Z,102573.13
2023-02-15T04:07:49.822Z,102573.06
2023-02-15T04:10:35.001Z,102568.38
2023-02-15T04:13:01.467Z,102572.53
2023-02-15T04:15:46.742Z,102557.03
2023-02-15T04:18:13.240Z,102562.84
2023-02-15T04:20:58.304Z,102558.44
2023-02-15T04:23:43.375Z,102557.56
2023-02-15T04:26:09.819Z,102559.00
2023-02-15T04:28:36.696Z,102553.38
2023-02-15T04:31:03.172Z,102555.13
2023-02-15T04:33:29.744Z,102556.69
2023-02-15T04:35:57.235Z,102541.34
2023-02-15T04:38:23.791Z,102549.81
2023-02-15T04:40:52.156Z,102555.03
2023-02-15T04:43:19.760Z,102545.47
2023-02-15T04:45:51.387Z,102543.34
2023-02-15T04:48:18.897Z,102541.97
2023-02-15T04:50:45.966Z,102540.44
2023-02-15T04:53:12.628Z,102543.31
2023-02-15T04:55:39.149Z,102539.25
2023-02-15T04:58:05.623Z,102540.56
2023-02-15T05:00:32.116Z,102533.16
2023-02-15T05:02:58.605Z,102527.16
2023-02-15T05:05:25.113Z,102519.31
2023-02-15T05:07:51.559Z,102514.34
2023-02-15T05:10:18.191Z,102515.97
2023-02-15T05:12:44.700Z,102519.50
2023-02-15T05:15:11.247Z,102515.56
2023-02-15T05:17:37.743Z,102510.06
2023-02-15T05:20:05.028Z,102505.09
2023-02-15T05:22:31.478Z,102502.09
2023-02-15T05:25:16.594Z,102508.66
2023-02-15T05:28:02.842Z,102500.00
2023-02-15T05:30:30.426Z,102503.00
2023-02-15T05:32:56.956Z,102491.38
2023-02-15T05:35:23.519Z,102501.91
2023-02-15T05:37:50.004Z,102495.16
2023-02-15T05:40:16.637Z,102501.13
2023-02-15T05:42:43.132Z,102502.81
2023-02-15T05:45:09.848Z,102505.28
2023-02-15T05:47:36.342Z,102505.59
2023-02-15T05:50:02.851Z,102505.13
2023-02-15T05:52:29.272Z,102499.97
2023-02-15T05:54:55.758Z,102504.56
2023-02-15T05:57:22.222Z,102518.03
2023-02-15T05:59:48.672Z,102516.22
2023-02-15T06:02:25.305Z,102511.06
2023-02-15T06:04:51.756Z,102514.59
2023-02-15T06:07:18.246Z,102503.66
2023-02-15T06:09:53.658Z,102501.59
2023-02-15T06:12:20.135Z,102504.63
2023-02-15T06:14:46.581Z,102502.41
2023-02-15T06:17:13.211Z,102507.84
2023-02-15T06:19:39.660Z,102503.91
2023-02-15T06:22:07.344Z,102502.59
2023-02-15T06:24:33.796Z,102514.56
2023-02-15T06:27:00.249Z,102509.34
2023-02-15T06:29:26.760Z,102506.16
2023-02-15T06:31:53.304Z,102495.56
2023-02-15T06:34:19.926Z,102501.72
2023-02-15T06:36:46.420Z,102502.59
2023-02-15T06:39:12.889Z,102489.19
2023-02-15T06:41:40.010Z,102494.69
2023-02-15T06:44:06.525Z,102500.72
2023-02-15T06:46:33.146Z,102504.69
2023-02-15T06:48:59.741Z,102502.31
2023-02-15T06:51:26.264Z,102503.56
2023-02-15T06:53:52.744Z,102497.16
2023-02-15T06:56:19.233Z,102497.25
2023-02-15T06:58:46.987Z,102492.88
2023-02-15T07:01:13.688Z,102487.03
2023-02-15T07:03:44.363Z,102481.47
2023-02-15T07:06:11.714Z,102487.72
2023-02-15T07:08:39.397Z,102487.00
2023-02-15T07:11:25.535Z,102479.88
2023-02-15T07:13:53.348Z,102472.22
2023-02-15T07:16:20.655Z,102482.22
2023-02-15T07:18:47.364Z,102484.47
2023-02-15T07:21:13.840Z,102476.16
2023-02-15T07:23:40.706Z,102477.78
2023-02-15T07:26:08.379Z,102478.97
2023-02-15T07:28:35.522Z,102478.75
2023-02-15T07:31:03.606Z,102474.88
2023-02-15T07:33:32.627Z,102464.88
2023-02-15T07:36:01.363Z,102470.19
2023-02-15T07:38:30.538Z,102458.63
2023-02-15T07:41:01.131Z,102448.47
2023-02-15T07:43:28.567Z,102451.59
2023-02-15T07:45:55.115Z,102439.28
2023-02-15T07:48:23.280Z,102438.34
2023-02-15T07:50:51.297Z,102449.69
2023-02-15T07:53:17.755Z,102439.53
2023-02-15T07:55:44.259Z,102445.06
2023-02-15T07:58:10.820Z,102440.94
2023-02-15T08:00:55.869Z,102433.75
2023-02-15T08:03:27.890Z,102432.91
2023-02-15T08:05:59.614Z,102435.31
2023-02-15T08:08:33.546Z,102447.50
2023-02-15T08:11:25.849Z,102436.34
2023-02-15T08:13:54.861Z,102438.03
2023-02-15T08:16:22.921Z,102447.91
2023-02-15T08:18:49.458Z,102439.97
2023-02-15T08:21:15.932Z,102441.88
2023-02-15T08:23:42.527Z,102430.25
2023-02-15T08:26:09.037Z,102430.97
2023-02-15T08:28:35.523Z,102427.59
2023-02-15T08:31:09.653Z,102427.47
2023-02-15T08:33:37.562Z,102424.88
2023-02-15T08:36:05.930Z,102420.69
2023-02-15T08:38:33.730Z,102419.63
2023-02-15T08:41:24.804Z,102425.19
2023-02-15T08:43:55.894Z,102427.75
2023-02-15T08:46:23.916Z,102424.34
2023-02-15T08:48:50.980Z,102421.78
2023-02-15T08:51:23.294Z,102414.97
2023-02-15T08:53:52.239Z,102413.13
2023-02-15T08:56:22.696Z,102405.50
2023-02-15T08:58:49.551Z,102409.22
2023-02-15T09:01:24.307Z,102390.97
2023-02-15T09:03:55.265Z,102388.13
2023-02-15T09:06:22.895Z,102393.09
2023-02-15T09:08:52.787Z,102390.81
2023-02-15T09:11:24.888Z,102392.75
2023-02-15T09:13:54.807Z,102385.63
2023-02-15T09:16:22.577Z,102394.03
2023-02-15T09:18:49.808Z,102397.56
2023-02-15T09:21:18.746Z,102402.03
2023-02-15T09:23:47.030Z,102405.31
2023-02-15T09:26:16.548Z,102393.81
2023-02-15T09:28:43.132Z,102402.38
2023-02-15T09:31:16.128Z,102392.88
2023-02-15T09:33:44.531Z,102398.81
2023-02-15T09:36:20.236Z,102400.78
2023-02-15T09:38:47.429Z,102392.88
2023-02-15T09:41:35.747Z,102376.88
2023-02-15T09:44:08.259Z,102382.47
2023-02-15T09:46:48.935Z,102382.81
2023-02-15T09:49:56.689Z,102381.84
2023-02-15T09:52:49.188Z,102385.59
2023-02-15T09:55:37.415Z,102398.16
2023-02-15T09:58:33.345Z,102388.34
2023-02-15T10:01:20.748Z,102383.41
2023-02-15T10:04:13.633Z,102388.19
2023-02-15T10:06:45.215Z,102385.84
2023-02-15T10:09:50.196Z,102392.28
2023-02-15T10:12:25.793Z,102393.03
2023-02-15T10:15:10.135Z,102381.94
2023-02-15T10:18:10.722Z,102387.44
2023-02-15T10:20:58.791Z,102387.69
2023-02-15T10:23:38.841Z,102389.84
2023-02-15T10:26:20.014Z,102388.53
2023-02-15T10:28:53.554Z,102387.03
2023-02-15T10:32:04.819Z,102382.91
2023-02-15T10:34:41.289Z,102382.75
2023-02-15T10:37:35.614Z,102379.69
2023-02-15T10:40:28.113Z,102380.41
2023-02-15T10:43:07.860Z,102378.81
2023-02-15T10:45:48.064Z,102378.78
2023-02-15T10:48:23.167Z,102380.19
2023-02-15T10:50:54.184Z,102373.69
2023-02-15T10:53:51.666Z,102365.78
2023-02-15T10:56:27.852Z,102362.91
2023-02-15T10:59:31.892Z,102362.34
2023-02-15T11:02:58.445Z,102355.81
2023-02-15T11:05:39.770Z,102363.78
2023-02-15T11:08:08.746Z,102360.50
2023-02-15T11:10:39.568Z,102356.63
2023-02-15T11:13:13.420Z,102357.66
2023-02-15T11:15:53.517Z,102357.94
2023-02-15T11:18:32.063Z,102348.72
2023-02-15T11:21:04.731Z,102355.41
2023-02-15T11:23:33.167Z,102348.41
2023-02-15T11:26:05.801Z,102344.78
2023-02-15T11:28:39.365Z,102338.59
2023-02-15T11:31:26.940Z,102344.66
2023-02-15T11:34:01.144Z,102338.22
2023-02-15T11:36:33.249Z,102330.34
2023-02-15T11:39:04.842Z,102328.63
2023-02-15T11:41:36.169Z,102327.84
2023-02-15T11:44:27.305Z,102325.41
2023-02-15T11:46:53.882Z,102317.19
2023-02-15T11:49:28.613Z,102317.31
2023-02-15T11:51:56.840Z,102311.06
2023-02-15T11:54:29.120Z,102313.75
2023-02-15T11:57:19.060Z,102304.94
2023-02-15T11:59:53.864Z,102314.97
2023-02-15T12:02:23.211Z,102308.66
2023-02-15T12:05:00.385Z,102301.81
2023-02-15T12:07:34.604Z,102310.25
2023-02-15T12:10:33.276Z,102307.59
2023-02-15T12:13:17.346Z,102303.34
2023-02-15T12:15:53.136Z,102291.44
2023-02-15T12:18:45.927Z,102299.56
2023-02-15T12:21:16.126Z,102285.94
2023-02-15T12:23:48.914Z,102285.81
2023-02-15T12:26:16.110Z,102285.94
2023-02-15T12:28:45.343Z,102274.34
2023-02-15T12:31:33.124Z,102270.38
2023-02-15T12:34:03.423Z,102266.66
2023-02-15T12:36:35.051Z,102256.59
2023-02-15T12:39:13.670Z,102268.03
2023-02-15T12:41:55.551Z,102265.25
2023-02-15T12:44:31.018Z,102260.31
2023-02-15T12:46:59.285Z,102258.50
2023-02-15T12:49:27.147Z,102252.59
2023-02-15T12:51:59.493Z,102243.94
2023-02-15T12:54:41.103Z,102248.25
2023-02-15T12:57:30.755Z,102249.63
2023-02-15T13:00:01.706Z,102241.81
2023-02-15T13:02:32.223Z,102238.53
2023-02-15T13:05:06.734Z,102230.56
2023-02-15T13:07:33.649Z,102230.03
2023-02-15T13:10:00.374Z,102236.03
2023-02-15T13:12:29.954Z,102231.00
2023-02-15T13:14:57.130Z,102231.63
2023-02-15T13:17:32.752Z,102227.03
2023-02-15T13:20:05.010Z,102231.44
2023-02-15T13:22:44.883Z,102219.63
2023-02-15T13:25:20.073Z,102229.38
2023-02-15T13:27:47.635Z,102234.91
2023-02-15T13:30:27.055Z,102214.31
2023-02-15T13:32:58.541Z,102220.75
2023-02-15T13:35:26.312Z,102221.72
2023-02-15T13:38:18.989Z,102221.06
2023-02-15T13:40:55.393Z,102230.78
2023-02-15T13:43:44.677Z,102216.50
2023-02-15T13:46:44.002Z,102218.88
2023-02-15T13:49:30.847Z,102217.47
2023-02-15T13:52:19.278Z,102224.09
2023-02-15T13:55:08.158Z,102226.59
2023-02-15T13:57:50.073Z,102224.31
2023-02-15T14:00:38.354Z,102223.41
2023-02-15T14:03:38.986Z,102222.28
2023-02-15T14:06:20.909Z,102214.91
2023-02-15T14:08:59.333Z,102208.81
2023-02-15T14:11:33.355Z,102205.59
2023-02-15T14:14:10.244Z,102208.31
2023-02-15T14:17:21.961Z,102196.38
2023-02-15T14:20:18.591Z,102189.56
2023-02-15T14:23:06.880Z,102190.72
2023-02-15T14:25:42.201Z,102182.38
2023-02-15T14:28:13.569Z,102188.03
2023-02-15T14:30:43.537Z,102188.00
2023-02-15T14:33:32.804Z,102184.00
2023-02-15T14:36:01.980Z,102194.09
2023-02-15T14:38:37.510Z,102182.69
2023-02-15T14:41:18.343Z,102179.19
2023-02-15T14:43:50.897Z,102180.75
2023-02-15T14:46:25.178Z,102180.78
2023-02-15T14:48:54.485Z,102177.44
2023-02-15T14:51:44.062Z,102166.78
2023-02-15T14:54:11.894Z,102171.50
2023-02-15T14:56:39.987Z,102165.41
2023-02-15T14:59:12.502Z,102169.34
2023-02-15T15:01:39.624Z,102172.63
2023-02-15T15:04:12.822Z,102165.75
2023-02-15T15:06:42.439Z,102166.56
2023-02-15T15:09:28.300Z,102166.06
2023-02-15T15:12:02.470Z,102170.63
2023-02-15T15:14:35.259Z,102174.25
2023-02-15T15:17:04.957Z,102173.53
2023-02-15T15:19:53.703Z,102163.63
2023-02-15T15:22:24.745Z,102170.22
2023-02-15T15:24:55.803Z,102173.72
2023-02-15T15:27:40.675Z,102173.94
2023-02-15T15:30:30.514Z,102166.06
2023-02-15T15:33:07.990Z,102164.34
2023-02-15T15:36:16.590Z,102158.06
2023-02-15T15:39:14.029Z,102157.47
2023-02-15T15:42:16.285Z,102161.53
2023-02-15T15:45:04.941Z,102159.31
2023-02-15T15:47:36.431Z,102151.94
2023-02-15T15:50:13.308Z,102154.53
2023-02-15T15:52:41.245Z,102141.28
2023-02-15T15:55:18.061Z,102138.88
2023-02-15T15:57:45.704Z,102127.59
2023-02-15T16:00:30.546Z,102129.53
2023-02-15T16:02:57.187Z,102134.63
2023-02-15T16:05:24.088Z,102129.78
2023-02-15T16:07:50.802Z,102124.66
2023-02-15T16:10:23.740Z,102128.03
2023-02-15T16:12:50.825Z,102128.84
2023-02-15T16:15:22.597Z,102124.84
2023-02-15T16:17:54.555Z,102119.69
2023-02-15T16:20:24.507Z,102125.16
2023-02-15T16:23:17.552Z,102118.00
2023-02-15T16:25:58.772Z,102110.69
2023-02-15T16:28:25.416Z,102103.16
2023-02-15T16:31:13.108Z,102106.16
2023-02-15T16:33:41.164Z,102102.47
2023-02-15T16:36:21.618Z,102103.03
2023-02-15T16:39:02.049Z,102099.47
2023-02-15T16:41:29.858Z,102099.25
2023-02-15T16:44:20.243Z,102105.28
2023-02-15T16:46:56.016Z,102101.84
2023-02-15T16:49:24.522Z,102091.38
2023-02-15T16:52:00.649Z,102085.00
2023-02-15T16:54:28.758Z,102099.09
2023-02-15T16:56:55.486Z,102082.84
2023-02-15T16:59:36.463Z,102082.56
2023-02-15T17:02:40.091Z,102091.88
2023-02-15T17:05:12.145Z,102087.47
2023-02-15T17:07:51.200Z,102089.13
2023-02-15T17:10:33.169Z,102093.44
2023-02-15T17:13:06.108Z,102091.19
2023-02-15T17:15:35.008Z,102090.41
2023-02-15T17:18:06.324Z,102092.50
2023-02-15T17:20:36.475Z,102095.38
2023-02-15T17:23:05.147Z,102089.22
2023-02-15T17:25:41.024Z,102083.59
2023-02-15T17:28:18.184Z,102093.38
2023-02-15T17:30:47.194Z,102090.94
2023-02-15T17:33:40.626Z,102089.66
2023-02-15T17:36:16.929Z,102089.47
2023-02-15T17:38:58.784Z,102085.66
2023-02-15T17:41:30.490Z,102081.88
2023-02-15T17:43:57.245Z,102087.88
2023-02-15T17:46:24.418Z,102073.19
2023-02-15T17:48:55.735Z,102080.81
2023-02-15T17:51:23.559Z,102086.72
2023-02-15T17:54:08.859Z,102080.38
2023-02-15T17:56:36.942Z,102076.34
2023-02-15T17:59:07.636Z,102087.56
2023-02-15T18:02:00.365Z,102070.81
2023-02-15T18:04:45.400Z,102074.59
2023-02-15T18:07:31.495Z,102068.50
2023-02-15T18:10:16.870Z,102073.34
2023-02-15T18:12:43.388Z,102064.13
2023-02-15T18:15:12.323Z,102064.16
2023-02-15T18:17:41.815Z,102059.91
2023-02-15T18:20:31.393Z,102072.38
2023-02-15T18:22:58.170Z,102072.69
2023-02-15T18:25:25.648Z,102065.84
2023-02-15T18:27:54.898Z,102065.72
2023-02-15T18:30:23.793Z,102076.38
2023-02-15T18:32:51.967Z,102069.59
2023-02-15T18:35:20.283Z,102081.16
2023-02-15T18:37:48.614Z,102072.69
2023-02-15T18:40:20.449Z,102064.41
2023-02-15T18:42:48.462Z,102056.50
2023-02-15T18:45:22.323Z,102055.84
2023-02-15T18:47:48.964Z,102035.47
2023-02-15T18:50:17.540Z,102041.94
2023-02-15T18:52:46.602Z,102050.13
2023-02-15T18:55:22.072Z,102054.72
2023-02-15T18:57:49.755Z,102047.97
2023-02-15T19:00:22.772Z,102045.28
2023-02-15T19:02:49.216Z,102042.69
2023-02-15T19:05:17.885Z,102039.13
2023-02-15T19:07:48.377Z,102038.28
2023-02-15T19:10:22.977Z,102037.88
2023-02-15T19:12:50.221Z,102047.38
2023-02-15T19:15:18.559Z,102046.25
2023-02-15T19:17:45.096Z,102051.34
2023-02-15T19:20:38.373Z,102056.94
2023-02-15T19:23:12.544Z,102054.03
2023-02-15T19:25:39.617Z,102043.53
2023-02-15T19:28:12.070Z,102042.16
2023-02-15T19:30:38.634Z,102063.19
2023-02-15T19:33:05.308Z,102047.38
2023-02-15T19:35:35.235Z,102058.00
2023-02-15T19:38:04.105Z,102048.81
2023-02-15T19:40:32.458Z,102036.81
2023-02-15T19:42:58.999Z,102042.22
2023-02-15T19:45:27.909Z,102042.22
2023-02-15T19:47:55.241Z,102042.88
2023-02-15T19:50:26.441Z,102036.56
2023-02-15T19:52:53.052Z,102030.50
2023-02-15T19:55:29.668Z,102037.25
2023-02-15T19:57:57.703Z,102031.91
2023-02-15T20:00:26.452Z,102025.16
2023-02-15T20:02:53.740Z,102027.19
2023-02-15T20:05:20.780Z,102016.94
2023-02-15T20:07:49.628Z,102025.03
2023-02-15T20:10:21.359Z,102026.81
2023-02-15T20:12:48.305Z,102032.13
2023-02-15T20:15:24.010Z,102023.28
2023-02-15T20:17:51.499Z,102018.53
2023-02-15T20:20:18.818Z,102020.91
2023-02-15T20:22:47.639Z,102025.06
2023-02-15T20:25:24.191Z,102017.41
2023-02-15T20:27:50.948Z,102018.75
2023-02-15T20:30:31.816Z,102023.41
2023-02-15T20:32:58.825Z,102013.34
2023-02-15T20:35:31.128Z,102007.63
2023-02-15T20:38:00.401Z,102014.94
2023-02-15T20:40:32.093Z,102002.28
2023-02-15T20:42:59.092Z,102007.59
2023-02-15T20:45:28.302Z,102010.47
2023-02-15T20:47:55.392Z,102015.84
2023-02-15T20:50:24.427Z,101998.44
2023-02-15T20:52:52.304Z,102011.19
2023-02-15T20:55:24.379Z,102012.06
2023-02-15T20:57:51.388Z,102007.47
2023-02-15T21:00:26.506Z,102000.72
2023-02-15T21:02:56.762Z,101995.13
2023-02-15T21:05:25.903Z,101998.69
2023-02-15T21:07:53.383Z,101989.31
2023-02-15T21:10:22.526Z,101994.97
2023-02-15T21:12:49.971Z,101986.53
2023-02-15T21:15:35.641Z,101985.47
2023-02-15T21:18:04.339Z,101986.38
2023-02-15T21:20:32.329Z,101975.53
2023-02-15T21:23:01.223Z,101986.25
2023-02-15T21:25:30.912Z,101992.13
2023-02-15T21:27:57.370Z,101991.09
2023-02-15T21:30:24.639Z,102006.63
2023-02-15T21:32:51.918Z,101992.06
2023-02-15T21:35:19.418Z,101989.78
2023-02-15T21:37:47.276Z,101991.75
2023-02-15T21:40:13.696Z,101988.66
2023-02-15T21:42:59.356Z,101983.56
2023-02-15T21:45:44.394Z,101976.31
2023-02-15T21:48:10.893Z,101968.13
2023-02-15T21:50:56.583Z,101972.53
2023-02-15T21:53:34.866Z,101963.59
2023-02-15T21:56:04.046Z,101958.84
2023-02-15T21:58:32.711Z,101956.88
2023-02-15T22:01:00.736Z,101954.06
2023-02-15T22:03:32.226Z,101952.75
2023-02-15T22:05:58.763Z,101944.59
2023-02-15T22:08:25.330Z,101955.13
2023-02-15T22:10:53.945Z,101950.69
2023-02-15T22:13:31.594Z,101942.72
2023-02-15T22:15:58.794Z,101950.16
2023-02-15T22:18:28.051Z,101947.63
2023-02-15T22:20:55.698Z,101940.03
2023-02-15T22:23:23.296Z,101944.72
2023-02-15T22:25:55.424Z,101937.72
2023-02-15T22:28:32.130Z,101944.19
2023-02-15T22:30:58.647Z,101929.69
2023-02-15T22:33:31.035Z,101927.94
2023-02-15T22:35:57.946Z,101929.16
2023-02-15T22:38:24.655Z,101931.41
2023-02-15T22:40:56.068Z,101919.81
2023-02-15T22:43:25.409Z,101914.44
2023-02-15T22:45:52.262Z,101908.00
2023-02-15T22:48:21.673Z,101918.53
2023-02-15T22:50:48.762Z,101913.22
2023-02-15T22:53:15.335Z,101913.53
2023-02-15T22:55:42.103Z,101909.59
2023-02-15T22:58:15.974Z,101916.22
2023-02-15T23:00:42.584Z,101907.00
2023-02-15T23:03:21.341Z,101913.06
2023-02-15T23:05:48.025Z,101908.63
2023-02-15T23:08:15.204Z,101903.72
2023-02-15T23:10:43.560Z,101903.53
2023-02-15T23:13:29.668Z,101906.41
2023-02-15T23:16:02.713Z,101909.63
2023-02-15T23:18:35.501Z,101908.69
2023-02-15T23:21:21.988Z,101907.97
2023-02-15T23:23:55.008Z,101912.47
2023-02-15T23:26:25.729Z,101911.06
2023-02-15T23:28:54.155Z,101906.69
2023-02-15T23:31:36.645Z,101910.06
2023-02-15T23:34:14.491Z,101896.31
2023-02-15T23:36:41.025Z,101898.31
2023-02-15T23:39:38.888Z,101898.16
2023-02-15T23:42:10.056Z,101896.31
2023-02-15T23:44:36.814Z,101893.59
2023-02-15T23:47:03.502Z,101892.66
2023-02-15T23:49:29.955Z,101893.78
2023-02-15T23:51:57.501Z,101899.69
2023-02-15T23:54:25.885Z,101901.84
2023-02-15T23:56:59.362Z,101904.59
2023-02-15T23:59:28.049Z,101901.63
